createdAt,value
2023-06-04T00:24:01.804Z,20
2023-06-04T00:53:13.491Z,20
2023-06-04T01:22:31.785Z,19
2023-06-04T01:51:42.390Z,22
2023-06-04T02:20:59.784Z,22
2023-06-04T02:50:22.382Z,22
2023-06-04T03:19:38.901Z,20
2023-06-04T03:48:45.018Z,22
2023-06-04T04:17:55.114Z,23
2023-06-04T04:47:07.013Z,23
2023-06-04T05:16:22.422Z,17
2023-06-04T05:45:37.770Z,16
2023-06-04T06:14:54.850Z,16
2023-06-04T06:44:08.064Z,16
2023-06-04T07:13:22.832Z,13
2023-06-04T07:42:44.940Z,13
2023-06-04T08:12:00.666Z,13
2023-06-04T08:41:18.819Z,13
2023-06-04T09:10:34.133Z,13
2023-06-04T09:39:54.644Z,14
2023-06-04T10:09:19.509Z,14
2023-06-04T10:38:48.674Z,15
2023-06-04T11:08:21.325Z,13
2023-06-04T11:37:50.669Z,11
2023-06-04T12:07:17.683Z,12
2023-06-04T12:36:57.288Z,13
2023-06-04T13:06:30.161Z,11
2023-06-04T13:36:02.295Z,13
2023-06-04T14:05:30.062Z,13
2023-06-04T14:35:00.369Z,13
2023-06-04T15:04:29.740Z,10
2023-06-04T15:33:14.887Z,10
2023-06-04T16:02:18.102Z,14
2023-06-04T16:31:38.429Z,16
2023-06-04T17:00:50.344Z,13
2023-06-04T17:30:00.976Z,13
2023-06-04T17:59:14.101Z,11
2023-06-04T18:28:31.590Z,12
2023-06-04T18:57:46.065Z,11
2023-06-04T19:26:53.448Z,10
2023-06-04T19:56:09.661Z,13
2023-06-04T20:25:07.060Z,19
2023-06-04T20:54:20.066Z,22
2023-06-04T21:23:32.248Z,20
2023-06-04T21:52:46.129Z,22
2023-06-04T22:21:58.276Z,19
2023-06-04T22:51:05.488Z,20
2023-06-04T23:20:08.114Z,16
2023-06-04T23:49:25.908Z,15
